createdAt,value
2022-12-16T00:01:25.082Z,9.60
2022-12-16T00:03:55.931Z,8.77
2022-12-16T00:06:25.627Z,8.83
2022-12-16T00:08:53.857Z,10.30
2022-12-16T00:11:22.938Z,10.20
2022-12-16T00:13:50.978Z,9.50
2022-12-16T00:16:22.245Z,9.77
2022-12-16T00:18:51.979Z,8.60
2022-12-16T00:21:21.846Z,9.73
2022-12-16T00:23:49.848Z,11.17
2022-12-16T00:26:17.608Z,10.40
2022-12-16T00:28:45.393Z,10.53
2022-12-16T00:31:13.362Z,12.30
2022-12-16T00:33:41.291Z,11.77
2022-12-16T00:36:10.065Z,10.07
2022-12-16T00:38:39.491Z,9.63
2022-12-16T00:41:08.071Z,10.03
2022-12-16T00:43:36.266Z,9.27
2022-12-16T00:46:04.223Z,8.20
2022-12-16T00:48:32.006Z,8.20
2022-12-16T00:50:59.772Z,9.90
2022-12-16T00:53:27.538Z,9.50
2022-12-16T00:56:08.043Z,8.57
2022-12-16T00:58:36.791Z,8.60
2022-12-16T01:01:05.772Z,8.83
2022-12-16T01:03:33.945Z,8.13
2022-12-16T01:06:02.018Z,6.87
2022-12-16T01:08:29.831Z,7.37
2022-12-16T01:10:58.629Z,6.37
2022-12-16T01:13:27.761Z,7.53
2022-12-16T01:15:55.518Z,7.60
2022-12-16T01:18:23.241Z,7.57
2022-12-16T01:20:51.371Z,7.27
2022-12-16T01:23:19.559Z,6.90
2022-12-16T01:25:52.041Z,8.67
2022-12-16T01:28:19.843Z,10.57
2022-12-16T01:30:48.899Z,11.67
2022-12-16T01:33:17.836Z,10.47
2022-12-16T01:35:55.542Z,10.80
2022-12-16T01:38:23.850Z,10.07
2022-12-16T01:40:51.658Z,9.13
2022-12-16T01:43:22.634Z,8.90
2022-12-16T01:45:52.580Z,10.00
2022-12-16T01:48:27.421Z,8.97
2022-12-16T01:51:01.411Z,8.07
2022-12-16T01:53:29.574Z,7.70
2022-12-16T01:55:58.989Z,7.57
2022-12-16T01:58:30.858Z,7.37
2022-12-16T02:01:00.920Z,7.20
2022-12-16T02:03:32.290Z,9.53
2022-12-16T02:06:01.865Z,11.40
2022-12-16T02:08:29.636Z,10.37
2022-12-16T02:11:17.163Z,11.13
2022-12-16T02:14:04.127Z,10.47
2022-12-16T02:16:40.377Z,9.63
2022-12-16T02:19:24.559Z,8.37
2022-12-16T02:22:03.329Z,8.13
2022-12-16T02:24:56.968Z,8.27
2022-12-16T02:27:50.120Z,7.63
2022-12-16T02:30:41.140Z,6.83
2022-12-16T02:33:23.140Z,6.90
2022-12-16T02:35:56.538Z,9.63
2022-12-16T02:38:31.870Z,9.57
2022-12-16T02:41:03.819Z,10.17
2022-12-16T02:43:51.747Z,10.83
2022-12-16T02:46:25.221Z,9.93
2022-12-16T02:48:53.747Z,8.87
2022-12-16T02:51:24.369Z,8.47
2022-12-16T02:53:54.286Z,9.43
2022-12-16T02:56:42.380Z,9.77
2022-12-16T02:59:23.287Z,8.30
2022-12-16T03:01:57.432Z,8.10
2022-12-16T03:04:33.034Z,8.10
2022-12-16T03:07:01.973Z,7.40
2022-12-16T03:09:34.686Z,7.17
2022-12-16T03:12:07.447Z,7.27
2022-12-16T03:14:39.736Z,7.63
2022-12-16T03:17:10.310Z,6.43
2022-12-16T03:19:42.423Z,6.83
2022-12-16T03:22:14.085Z,6.30
2022-12-16T03:24:42.262Z,6.77
2022-12-16T03:27:18.430Z,6.27
2022-12-16T03:29:52.717Z,5.93
2022-12-16T03:32:27.656Z,5.57
2022-12-16T03:35:00.789Z,5.67
2022-12-16T03:37:32.978Z,7.07
2022-12-16T03:40:04.523Z,6.33
2022-12-16T03:42:33.050Z,8.10
2022-12-16T03:45:01.102Z,7.50
2022-12-16T03:47:30.680Z,10.03
2022-12-16T03:49:58.529Z,9.07
2022-12-16T03:52:26.246Z,8.63
2022-12-16T03:54:54.079Z,7.73
2022-12-16T03:57:22.336Z,8.53
2022-12-16T03:59:50.064Z,9.07
2022-12-16T04:02:17.888Z,8.03
2022-12-16T04:04:47.306Z,7.30
2022-12-16T04:07:21.234Z,7.13
2022-12-16T04:09:50.312Z,6.97
2022-12-16T04:12:35.286Z,7.60
2022-12-16T04:15:20.481Z,9.67
2022-12-16T04:18:05.729Z,11.37
2022-12-16T04:20:55.448Z,11.90
2022-12-16T04:23:43.378Z,11.13
2022-12-16T04:26:11.526Z,10.07
2022-12-16T04:28:39.319Z,9.33
2022-12-16T04:31:07.580Z,8.20
2022-12-16T04:33:53.048Z,8.40
2022-12-16T04:36:39.354Z,7.57
2022-12-16T04:39:24.756Z,10.60
2022-12-16T04:42:11.388Z,10.03
2022-12-16T04:44:57.361Z,8.60
2022-12-16T04:47:43.220Z,7.70
2022-12-16T04:50:28.586Z,6.93
2022-12-16T04:53:15.097Z,6.93
2022-12-16T04:56:02.132Z,7.83
2022-12-16T04:59:00.764Z,6.77
2022-12-16T05:01:46.145Z,7.73
2022-12-16T05:04:31.655Z,7.03
2022-12-16T05:07:17.156Z,6.87
2022-12-16T05:10:04.002Z,6.60
2022-12-16T05:12:49.368Z,6.10
2022-12-16T05:15:34.693Z,6.00
2022-12-16T05:18:27.341Z,6.03
2022-12-16T05:21:12.555Z,6.87
2022-12-16T05:23:57.715Z,7.03
2022-12-16T05:26:44.257Z,10.80
2022-12-16T05:29:29.948Z,7.93
2022-12-16T05:32:15.149Z,7.77
2022-12-16T05:35:00.453Z,8.07
2022-12-16T05:37:45.901Z,6.93
2022-12-16T05:40:31.289Z,8.57
2022-12-16T05:43:17.772Z,8.50
2022-12-16T05:46:03.247Z,8.90
2022-12-16T05:48:48.461Z,10.37
2022-12-16T05:51:33.891Z,9.77
2022-12-16T05:54:19.114Z,10.73
2022-12-16T05:57:04.310Z,10.47
2022-12-16T05:59:50.829Z,10.30
2022-12-16T06:02:36.414Z,10.27
2022-12-16T06:05:21.958Z,8.73
2022-12-16T06:08:09.995Z,9.10
2022-12-16T06:10:55.309Z,8.37
2022-12-16T06:13:40.793Z,8.23
2022-12-16T06:16:42.601Z,10.03
2022-12-16T06:19:27.912Z,8.93
2022-12-16T06:22:13.246Z,8.67
2022-12-16T06:24:58.367Z,8.70
2022-12-16T06:27:43.932Z,8.00
2022-12-16T06:30:30.073Z,6.50
2022-12-16T06:33:16.693Z,7.47
2022-12-16T06:36:01.864Z,6.83
2022-12-16T06:38:47.253Z,7.00
2022-12-16T06:41:37.756Z,8.30
2022-12-16T06:44:23.210Z,9.03
2022-12-16T06:47:08.401Z,8.57
2022-12-16T06:49:54.908Z,8.80
2022-12-16T06:52:40.385Z,8.80
2022-12-16T06:55:26.029Z,8.10
2022-12-16T06:58:15.708Z,8.07
2022-12-16T07:01:01.146Z,7.27
2022-12-16T07:03:46.421Z,7.00
2022-12-16T07:06:33.198Z,6.67
2022-12-16T07:09:18.666Z,7.03
2022-12-16T07:12:03.706Z,6.90
2022-12-16T07:14:49.235Z,7.10
2022-12-16T07:17:34.232Z,6.37
2022-12-16T07:20:19.770Z,5.73
2022-12-16T07:23:12.093Z,5.67
2022-12-16T07:25:58.933Z,6.23
2022-12-16T07:28:44.068Z,6.07
2022-12-16T07:31:29.361Z,5.70
2022-12-16T07:34:14.711Z,6.20
2022-12-16T07:36:59.921Z,7.00
2022-12-16T07:39:51.330Z,9.30
2022-12-16T07:42:40.290Z,8.10
2022-12-16T07:45:26.510Z,10.80
2022-12-16T07:48:12.131Z,10.40
2022-12-16T07:50:57.940Z,10.57
2022-12-16T07:53:44.259Z,9.07
2022-12-16T07:56:31.269Z,9.77
2022-12-16T07:59:16.906Z,9.67
2022-12-16T08:02:02.544Z,8.27
2022-12-16T08:04:47.889Z,8.60
2022-12-16T08:07:33.061Z,9.63
2022-12-16T08:10:18.311Z,10.23
2022-12-16T08:13:05.037Z,11.67
2022-12-16T08:15:50.365Z,12.47
2022-12-16T08:18:35.737Z,13.73
2022-12-16T08:21:20.922Z,14.20
2022-12-16T08:24:06.151Z,13.87
2022-12-16T08:26:51.407Z,15.17
2022-12-16T08:29:45.546Z,14.37
2022-12-16T08:32:31.512Z,15.97
2022-12-16T08:35:16.829Z,16.30
2022-12-16T08:38:02.057Z,14.80
2022-12-16T08:40:58.638Z,17.20
2022-12-16T08:43:44.051Z,15.87
2022-12-16T08:46:30.904Z,14.37
2022-12-16T08:52:06.528Z,13.40
2022-12-16T08:54:51.634Z,13.23
2022-12-16T08:57:37.098Z,11.93
2022-12-16T09:00:23.558Z,12.20
2022-12-16T09:03:13.937Z,10.67
2022-12-16T09:05:59.756Z,11.70
2022-12-16T09:08:44.749Z,10.93
2022-12-16T09:11:30.060Z,12.20
2022-12-16T09:14:15.254Z,12.50
2022-12-16T09:17:00.323Z,12.23
2022-12-16T09:19:46.837Z,11.83
2022-12-16T09:22:31.799Z,12.20
2022-12-16T09:25:16.891Z,13.93
2022-12-16T09:28:02.075Z,12.13
2022-12-16T09:30:47.322Z,12.13
2022-12-16T09:33:32.989Z,13.20
2022-12-16T09:36:19.572Z,13.23
2022-12-16T09:39:05.176Z,12.87
2022-12-16T09:42:00.452Z,12.67
2022-12-16T09:44:58.810Z,11.80
2022-12-16T09:47:53.742Z,11.53
2022-12-16T09:50:43.417Z,11.93
2022-12-16T09:53:33.787Z,10.77
2022-12-16T09:56:21.942Z,11.63
2022-12-16T09:59:12.888Z,12.70
2022-12-16T10:01:59.564Z,12.60
2022-12-16T10:04:45.113Z,13.87
2022-12-16T10:07:36.857Z,18.17
2022-12-16T10:10:36.228Z,17.60
2022-12-16T10:13:28.175Z,15.27
2022-12-16T10:16:21.545Z,13.90
2022-12-16T10:19:15.258Z,14.00
2022-12-16T10:22:16.552Z,17.10
2022-12-16T10:25:12.437Z,14.23
2022-12-16T10:28:02.991Z,18.23
2022-12-16T10:30:49.166Z,17.80
2022-12-16T10:33:36.305Z,15.37
2022-12-16T10:36:22.667Z,15.50
2022-12-16T10:39:12.281Z,13.63
2022-12-16T10:42:01.203Z,13.03
2022-12-16T10:44:53.986Z,13.00
2022-12-16T10:47:41.445Z,11.97
2022-12-16T10:50:31.721Z,11.00
2022-12-16T10:53:20.086Z,12.63
2022-12-16T10:56:16.830Z,12.07
2022-12-16T10:59:10.358Z,11.40
2022-12-16T11:01:57.961Z,10.37
2022-12-16T11:04:51.422Z,10.23
2022-12-16T11:07:46.528Z,17.17
2022-12-16T11:10:47.443Z,12.43
2022-12-16T11:13:38.764Z,14.80
2022-12-16T11:16:30.808Z,12.43
2022-12-16T11:19:18.102Z,12.37
2022-12-16T11:22:04.168Z,11.80
2022-12-16T11:24:50.357Z,10.53
2022-12-16T11:27:42.772Z,10.60
2022-12-16T11:30:37.684Z,9.90
2022-12-16T11:33:31.606Z,8.27
2022-12-16T11:36:28.833Z,8.63
2022-12-16T11:39:14.484Z,8.97
2022-12-16T11:42:01.459Z,7.47
2022-12-16T11:44:52.919Z,7.80
2022-12-16T11:47:45.361Z,8.00
2022-12-16T11:50:35.974Z,5.87
2022-12-16T11:53:25.624Z,8.90
2022-12-16T11:56:16.258Z,7.37
2022-12-16T11:59:04.877Z,7.50
2022-12-16T12:01:55.877Z,6.43
2022-12-16T12:04:41.777Z,6.93
2022-12-16T12:07:46.035Z,6.90
2022-12-16T12:11:08.644Z,7.23
2022-12-16T12:14:07.570Z,6.10
2022-12-16T12:17:03.798Z,6.20
2022-12-16T12:19:59.288Z,6.47
2022-12-16T12:22:53.190Z,5.93
2022-12-16T12:25:49.554Z,6.97
2022-12-16T12:28:46.820Z,7.13
2022-12-16T12:31:45.769Z,6.40
2022-12-16T12:34:41.571Z,6.10
2022-12-16T12:37:35.873Z,6.47
2022-12-16T12:40:35.553Z,7.20
2022-12-16T12:43:26.283Z,7.20
2022-12-16T12:46:21.432Z,6.90
2022-12-16T12:49:15.140Z,5.80
2022-12-16T12:52:12.456Z,6.10
2022-12-16T12:55:06.604Z,6.27
2022-12-16T12:57:53.526Z,6.40
2022-12-16T13:00:43.018Z,5.63
2022-12-16T13:03:37.540Z,5.87
2022-12-16T13:06:25.268Z,5.53
2022-12-16T13:09:14.952Z,5.47
2022-12-16T13:12:38.907Z,7.43
2022-12-16T13:15:25.882Z,6.53
2022-12-16T13:18:38.517Z,5.80
2022-12-16T13:21:42.460Z,6.10
2022-12-16T13:24:40.192Z,6.37
2022-12-16T13:27:31.607Z,6.10
2022-12-16T13:30:23.036Z,5.67
2022-12-16T13:33:13.633Z,5.57
2022-12-16T13:36:12.864Z,6.07
2022-12-16T13:39:05.044Z,6.43
2022-12-16T13:42:16.276Z,6.37
2022-12-16T13:45:16.402Z,5.80
2022-12-16T13:48:19.094Z,5.83
2022-12-16T13:51:06.654Z,6.30
2022-12-16T13:53:58.515Z,5.60
2022-12-16T13:56:52.170Z,6.20
2022-12-16T13:59:40.771Z,6.07
2022-12-16T14:02:45.931Z,4.80
2022-12-16T14:05:38.446Z,5.70
2022-12-16T14:08:29.695Z,5.07
2022-12-16T14:11:20.664Z,5.63
2022-12-16T14:14:13.694Z,5.70
2022-12-16T14:17:06.924Z,4.93
2022-12-16T14:20:01.298Z,4.83
2022-12-16T14:23:08.510Z,4.67
2022-12-16T14:26:00.529Z,4.50
2022-12-16T14:28:51.474Z,5.50
2022-12-16T14:31:41.135Z,5.30
2022-12-16T14:34:33.564Z,5.60
2022-12-16T14:37:23.911Z,5.33
2022-12-16T14:40:10.935Z,5.70
2022-12-16T14:43:00.312Z,5.07
2022-12-16T14:45:50.492Z,5.33
2022-12-16T14:48:49.470Z,4.90
2022-12-16T14:51:47.034Z,5.40
2022-12-16T14:54:41.726Z,5.20
2022-12-16T14:57:33.616Z,4.50
2022-12-16T15:00:33.989Z,5.27
2022-12-16T15:03:26.977Z,5.17
2022-12-16T15:06:12.901Z,4.50
2022-12-16T15:09:07.747Z,4.70
2022-12-16T15:11:55.171Z,4.60
2022-12-16T15:14:46.420Z,4.37
2022-12-16T15:17:40.557Z,4.17
2022-12-16T15:20:35.530Z,4.23
2022-12-16T15:23:20.841Z,4.23
2022-12-16T15:26:14.679Z,4.40
2022-12-16T15:29:01.984Z,3.80
2022-12-16T15:31:51.960Z,4.83
2022-12-16T15:34:47.191Z,3.87
2022-12-16T15:37:39.909Z,4.60
2022-12-16T15:40:39.054Z,4.10
2022-12-16T15:43:24.211Z,4.77
2022-12-16T15:46:09.811Z,4.83
2022-12-16T15:48:55.694Z,5.53
2022-12-16T15:51:47.655Z,6.30
2022-12-16T15:54:37.804Z,7.00
2022-12-16T15:57:45.084Z,7.83
2022-12-16T16:00:39.972Z,6.80
2022-12-16T16:03:37.457Z,6.43
2022-12-16T16:06:23.497Z,6.53
2022-12-16T16:09:10.312Z,7.20
2022-12-16T16:11:56.943Z,8.53
2022-12-16T16:14:42.482Z,8.57
2022-12-16T16:17:39.747Z,7.30
2022-12-16T16:20:28.362Z,7.30
2022-12-16T16:23:13.492Z,7.27
2022-12-16T16:26:03.636Z,7.70
2022-12-16T16:28:50.522Z,8.67
2022-12-16T16:31:36.277Z,9.63
2022-12-16T16:34:22.442Z,11.37
2022-12-16T16:37:11.677Z,12.33
2022-12-16T16:39:56.997Z,12.33
2022-12-16T16:42:42.673Z,11.90
2022-12-16T16:45:29.998Z,11.37
2022-12-16T16:48:39.421Z,11.20
2022-12-16T16:51:24.636Z,10.13
2022-12-16T16:54:10.208Z,9.00
2022-12-16T16:56:56.696Z,8.50
2022-12-16T16:59:42.921Z,8.70
2022-12-16T17:02:37.517Z,8.30
2022-12-16T17:05:26.330Z,7.37
2022-12-16T17:08:11.987Z,7.60
2022-12-16T17:10:57.393Z,7.27
2022-12-16T17:13:42.793Z,7.00
2022-12-16T17:16:29.439Z,7.10
2022-12-16T17:19:16.785Z,6.27
2022-12-16T17:22:02.190Z,7.47
2022-12-16T17:25:02.161Z,6.97
2022-12-16T17:27:47.928Z,7.03
2022-12-16T17:30:35.206Z,7.50
2022-12-16T17:33:21.212Z,8.13
2022-12-16T17:36:08.978Z,7.00
2022-12-16T17:38:56.379Z,7.97
2022-12-16T17:41:40.972Z,8.03
2022-12-16T17:44:26.771Z,7.13
2022-12-16T17:47:23.412Z,7.47
2022-12-16T17:50:08.539Z,7.63
2022-12-16T17:52:55.298Z,7.57
2022-12-16T17:55:40.992Z,7.43
2022-12-16T17:58:27.507Z,7.93
2022-12-16T18:01:19.265Z,6.50
2022-12-16T18:04:04.886Z,6.63
2022-12-16T18:06:50.362Z,6.43
2022-12-16T18:09:36.801Z,6.20
2022-12-16T18:12:22.856Z,6.13
2022-12-16T18:15:08.143Z,5.73
2022-12-16T18:17:53.633Z,5.90
2022-12-16T18:20:39.141Z,5.83
2022-12-16T18:23:30.076Z,6.07
2022-12-16T18:26:20.657Z,6.57
2022-12-16T18:29:06.195Z,5.87
2022-12-16T18:31:51.918Z,6.40
2022-12-16T18:34:37.871Z,5.10
2022-12-16T18:37:24.168Z,6.03
2022-12-16T18:40:09.900Z,6.13
2022-12-16T18:42:56.295Z,5.70
2022-12-16T18:45:41.848Z,5.80
2022-12-16T18:48:27.780Z,5.90
2022-12-16T18:51:14.446Z,6.10
2022-12-16T18:54:00.009Z,6.30
2022-12-16T18:56:45.598Z,6.00
2022-12-16T18:59:32.783Z,6.07
2022-12-16T19:02:18.410Z,5.90
2022-12-16T19:05:03.856Z,5.77
2022-12-16T19:07:49.141Z,6.00
2022-12-16T19:10:34.212Z,6.13
2022-12-16T19:13:19.909Z,5.73
2022-12-16T19:16:13.690Z,6.53
2022-12-16T19:18:59.677Z,6.20
2022-12-16T19:21:51.342Z,7.10
2022-12-16T19:24:37.323Z,6.60
2022-12-16T19:27:22.871Z,8.10
2022-12-16T19:30:08.422Z,7.87
2022-12-16T19:32:56.018Z,7.73
2022-12-16T19:35:41.357Z,6.73
2022-12-16T19:38:31.190Z,6.80
2022-12-16T19:41:16.623Z,7.13
2022-12-16T19:44:06.228Z,6.33
2022-12-16T19:46:51.974Z,6.90
2022-12-16T19:49:43.923Z,6.40
2022-12-16T19:52:29.747Z,5.93
2022-12-16T19:55:17.469Z,5.60
2022-12-16T19:58:03.509Z,6.23
2022-12-16T20:00:48.783Z,6.70
2022-12-16T20:03:35.699Z,6.73
2022-12-16T20:06:25.624Z,6.00
2022-12-16T20:09:11.357Z,6.60
2022-12-16T20:11:57.551Z,6.70
2022-12-16T20:14:43.357Z,6.90
2022-12-16T20:17:25.115Z,6.43
2022-12-16T20:20:10.423Z,6.73
2022-12-16T20:22:57.535Z,6.57
2022-12-16T20:25:43.054Z,6.20
2022-12-16T20:28:28.246Z,6.30
2022-12-16T20:31:13.510Z,6.43
2022-12-16T20:34:02.844Z,6.77
2022-12-16T20:36:48.667Z,7.20
2022-12-16T20:39:35.144Z,6.20
2022-12-16T20:42:20.309Z,7.03
2022-12-16T20:45:05.665Z,6.87
2022-12-16T20:47:51.232Z,6.57
2022-12-16T20:50:36.908Z,6.17
2022-12-16T20:53:21.924Z,5.80
2022-12-16T20:56:08.461Z,6.67
2022-12-16T20:58:56.137Z,6.53
2022-12-16T21:01:51.666Z,6.17
2022-12-16T21:04:46.618Z,6.50
2022-12-16T21:07:31.842Z,6.23
2022-12-16T21:10:17.262Z,6.10
2022-12-16T21:13:06.937Z,6.47
2022-12-16T21:15:52.412Z,5.70
2022-12-16T21:18:41.836Z,6.00
2022-12-16T21:21:27.095Z,5.87
2022-12-16T21:24:12.811Z,6.00
2022-12-16T21:26:58.183Z,5.77
2022-12-16T21:29:44.700Z,6.00
2022-12-16T21:32:29.934Z,6.33
2022-12-16T21:35:15.576Z,6.13
2022-12-16T21:38:01.178Z,6.07
2022-12-16T21:40:46.553Z,5.73
2022-12-16T21:43:34.227Z,5.03
2022-12-16T21:46:21.063Z,5.50
2022-12-16T21:49:06.638Z,5.13
2022-12-16T21:51:51.779Z,5.97
2022-12-16T21:54:37.021Z,5.37
2022-12-16T21:57:22.604Z,5.73
2022-12-16T22:00:08.267Z,5.27
2022-12-16T22:02:58.279Z,5.27
2022-12-16T22:05:43.593Z,6.17
2022-12-16T22:08:29.439Z,6.77
2022-12-16T22:11:14.624Z,6.13
2022-12-16T22:14:05.184Z,5.80
2022-12-16T22:16:50.783Z,5.63
2022-12-16T22:19:38.499Z,6.00
2022-12-16T22:22:23.615Z,6.37
2022-12-16T22:25:17.248Z,5.13
2022-12-16T22:28:02.833Z,5.83
2022-12-16T22:30:48.184Z,6.37
2022-12-16T22:33:33.505Z,5.60
2022-12-16T22:36:21.495Z,5.90
2022-12-16T22:39:06.854Z,6.17
2022-12-16T22:41:54.375Z,6.30
2022-12-16T22:44:41.390Z,6.07
2022-12-16T22:47:26.465Z,5.63
2022-12-16T22:50:12.043Z,5.90
2022-12-16T22:53:01.065Z,6.13
2022-12-16T22:55:46.173Z,5.80
2022-12-16T22:58:31.347Z,6.00
2022-12-16T23:01:16.547Z,5.83
2022-12-16T23:03:58.260Z,5.83
2022-12-16T23:06:44.155Z,5.30
2022-12-16T23:09:30.829Z,5.73
2022-12-16T23:12:16.589Z,5.47
2022-12-16T23:15:01.943Z,5.33
2022-12-16T23:17:47.656Z,5.77
2022-12-16T23:20:33.192Z,5.73
2022-12-16T23:23:18.626Z,6.43
2022-12-16T23:26:15.050Z,5.87
2022-12-16T23:29:00.343Z,6.20
2022-12-16T23:31:45.530Z,6.73
2022-12-16T23:34:46.046Z,5.70
2022-12-16T23:37:32.006Z,5.97
2022-12-16T23:40:17.521Z,5.93
2022-12-16T23:43:05.870Z,5.70
2022-12-16T23:45:51.577Z,5.83
2022-12-16T23:48:37.319Z,5.70
2022-12-16T23:51:22.887Z,6.13
2022-12-16T23:54:08.276Z,5.80
2022-12-16T23:56:53.514Z,5.97
2022-12-16T23:59:43.244Z,6.03
